MSC Carolina — 3ECV5 — position and weather

sailwx.info

Track history (hours):
 
Tides and Currents Weather Stations Pressure Air Temp Water Temp Dewpoint Dewpoint Depression Visibility Wind Speed Wind Dir Waves Ship Positions

MSC Carolina

Last reported at 2016-Sep-20 17:33 UTC. Time now 2016-Sep-26 22:30 UTC.
Position S 39°09' E 146°30'.

Length 275 m; draft 11.5 m.

Type: Ship (hazmat cat B). MMSI: 371475000.

Date/timePositionNaut miles runAvg speedWind from/ knotsBaromVisibWave heightAir tempDewpointWater temp
2016-Sep-20 17:33S 39°09' E 146°30'4916.2
2016-Sep-20 14:32S 38°53' E 147°29'10216.2
2016-Sep-20 08:15S 38°09' E 149°27'1116.1
2016-Sep-20 07:33S 38°03' E 149°39'1616.3
2016-Sep-20 06:33S 37°54' E 149°56'6716.6
2016-Sep-20 02:33S 37°03' E 150°49'  
2016-Sep-16 07:31S 37°17' E 150°34'5012.7
2016-Sep-16 03:34S 38°00' E 150°01'1313.2
2016-Sep-16 02:33S 38°12' E 149°53'2713.5
2016-Sep-16 00:33S 38°23' E 149°22'  
Track history (hours):
 
Tides and Currents Weather Stations Pressure Air Temp Water Temp Dewpoint Dewpoint Depression Visibility Wind Speed Wind Dir Waves Ship Positions

MSC Carolina

Last reported at 2016-Sep-20 17:33 UTC. Time now 2016-Sep-26 22:30 UTC.
Position S 39°09' E 146°30'.

Length 275 m; draft 11.5 m.

Type: Ship (hazmat cat B). MMSI: 371475000.

Date/timePositionNaut miles runAvg speedWind from/ knotsBaromVisibWave heightAir tempDewpointWater temp
2016-Sep-20 17:33S 39°09' E 146°30'4916.2
2016-Sep-20 14:32S 38°53' E 147°29'10216.2
2016-Sep-20 08:15S 38°09' E 149°27'1116.1
2016-Sep-20 07:33S 38°03' E 149°39'1616.3
2016-Sep-20 06:33S 37°54' E 149°56'6716.6
2016-Sep-20 02:33S 37°03' E 150°49'  
2016-Sep-16 07:31S 37°17' E 150°34'5012.7
2016-Sep-16 03:34S 38°00' E 150°01'1313.2
2016-Sep-16 02:33S 38°12' E 149°53'2713.5
2016-Sep-16 00:33S 38°23' E 149°22'  

Dump ship's entire track history